createdAt,value
2018-12-27T00:00:01.254Z,19.00
2018-12-27T00:01:04.574Z,19.00
2018-12-27T00:02:10.615Z,20.00
2018-12-27T00:03:15.174Z,18.00
2018-12-27T00:04:18.102Z,18.00
2018-12-27T00:05:21.087Z,17.50
2018-12-27T00:06:24.037Z,18.00
2018-12-27T00:07:29.917Z,20.00
2018-12-27T00:08:32.940Z,19.50
2018-12-27T00:09:35.881Z,18.50
2018-12-27T00:10:38.895Z,18.50
2018-12-27T00:11:41.807Z,21.50
2018-12-27T00:12:51.473Z,20.00
2018-12-27T00:13:51.785Z,17.50
2018-12-27T00:14:56.749Z,21.50
2018-12-27T00:16:00.596Z,18.50
2018-12-27T00:17:04.101Z,21.50
2018-12-27T00:18:12.039Z,16.50
2018-12-27T00:19:18.537Z,18.00
2018-12-27T00:20:22.171Z,18.00
2018-12-27T00:21:25.263Z,19.50
2018-12-27T00:22:28.258Z,17.00
2018-12-27T00:23:31.320Z,18.00
2018-12-27T00:24:34.315Z,18.50
2018-12-27T00:25:38.169Z,15.50
2018-12-27T00:26:41.205Z,16.00
2018-12-27T00:27:44.150Z,20.00
2018-12-27T00:28:49.218Z,20.00
2018-12-27T00:29:53.309Z,21.50
2018-12-27T00:30:56.259Z,17.50
2018-12-27T00:31:59.602Z,17.50
2018-12-27T00:33:03.304Z,21.50
2018-12-27T00:34:06.928Z,20.50
2018-12-27T00:35:09.859Z,19.50
2018-12-27T00:36:12.802Z,18.50
2018-12-27T00:37:15.698Z,22.00
2018-12-27T00:38:19.008Z,23.00
2018-12-27T00:39:21.960Z,19.50
2018-12-27T00:40:25.285Z,20.00
2018-12-27T00:41:28.666Z,21.50
2018-12-27T00:42:32.030Z,24.00
2018-12-27T00:43:37.270Z,25.00
2018-12-27T00:44:42.369Z,26.00
2018-12-27T00:45:45.283Z,21.50
2018-12-27T00:46:48.210Z,28.50
2018-12-27T00:47:51.127Z,27.00
2018-12-27T00:48:54.158Z,26.50
2018-12-27T00:49:59.810Z,21.50
2018-12-27T00:51:03.022Z,21.50
2018-12-27T00:52:05.936Z,23.00
2018-12-27T00:53:08.959Z,23.50
2018-12-27T00:54:11.903Z,22.00
2018-12-27T00:55:15.639Z,25.00
2018-12-27T00:56:19.988Z,25.00
2018-12-27T00:57:23.205Z,22.00
2018-12-27T00:58:26.163Z,25.00
2018-12-27T00:59:29.171Z,26.50
2018-12-27T01:00:34.073Z,23.50
2018-12-27T01:01:36.707Z,22.00
2018-12-27T01:02:39.612Z,24.50
2018-12-27T01:03:42.916Z,24.00
2018-12-27T01:04:45.849Z,26.00
2018-12-27T01:05:48.849Z,26.50
2018-12-27T01:06:51.768Z,24.50
2018-12-27T01:07:55.123Z,26.00
2018-12-27T01:08:58.058Z,22.50
2018-12-27T01:10:01.322Z,23.00
2018-12-27T01:11:04.226Z,26.50
2018-12-27T01:12:07.129Z,27.00
2018-12-27T01:13:10.075Z,25.50
2018-12-27T01:14:13.011Z,26.00
2018-12-27T01:15:16.009Z,29.50
2018-12-27T01:16:19.226Z,28.50
2018-12-27T01:17:23.276Z,27.00
2018-12-27T01:18:26.252Z,25.00
2018-12-27T01:19:29.180Z,24.00
2018-12-27T01:20:32.161Z,26.50
2018-12-27T01:21:35.085Z,24.00
2018-12-27T01:22:38.375Z,24.00
2018-12-27T01:23:41.316Z,22.00
2018-12-27T01:24:44.190Z,22.50
2018-12-27T01:25:47.145Z,24.00
2018-12-27T01:26:53.042Z,23.50
2018-12-27T01:27:57.879Z,22.00
2018-12-27T01:29:01.093Z,20.00
2018-12-27T01:30:08.129Z,22.00
2018-12-27T01:31:10.808Z,20.00
2018-12-27T01:32:14.177Z,21.50
2018-12-27T01:33:18.785Z,22.00
2018-12-27T01:34:22.154Z,27.00
2018-12-27T01:35:25.359Z,23.50
2018-12-27T01:36:28.694Z,24.00
2018-12-27T01:37:31.765Z,27.00
2018-12-27T01:38:34.761Z,24.00
2018-12-27T01:39:37.679Z,30.00
2018-12-27T01:40:40.574Z,25.50
2018-12-27T01:41:43.763Z,27.00
2018-12-27T01:42:47.261Z,27.00
2018-12-27T01:43:52.238Z,27.50
2018-12-27T01:44:54.897Z,23.00
2018-12-27T01:46:00.241Z,22.50
2018-12-27T01:47:03.156Z,24.00
2018-12-27T01:48:06.412Z,24.50
2018-12-27T01:49:09.402Z,23.00
2018-12-27T01:50:12.351Z,25.50
2018-12-27T01:51:15.272Z,27.00
2018-12-27T01:52:19.474Z,23.00
2018-12-27T01:53:25.506Z,23.00
2018-12-27T01:54:30.018Z,20.50
2018-12-27T01:55:32.954Z,22.00
2018-12-27T01:56:35.899Z,21.00
2018-12-27T01:57:38.782Z,22.50
2018-12-27T01:58:41.785Z,20.00
2018-12-27T01:59:47.197Z,20.50
2018-12-27T02:00:50.352Z,24.00
2018-12-27T02:01:53.257Z,19.50
2018-12-27T02:02:58.607Z,22.00
2018-12-27T02:04:01.608Z,18.50
2018-12-27T02:05:06.803Z,20.00
2018-12-27T02:06:10.207Z,19.00
2018-12-27T02:07:13.670Z,24.00
2018-12-27T02:08:17.037Z,22.50
2018-12-27T02:09:20.034Z,18.50
2018-12-27T02:10:22.984Z,17.50
2018-12-27T02:11:26.372Z,17.00
2018-12-27T02:12:29.669Z,19.50
2018-12-27T02:13:35.424Z,21.00
2018-12-27T02:14:39.904Z,18.00
2018-12-27T02:15:43.287Z,20.00
2018-12-27T02:16:46.290Z,18.50
2018-12-27T02:17:49.284Z,16.00
2018-12-27T02:18:52.734Z,17.50
2018-12-27T02:19:57.102Z,22.00
2018-12-27T02:21:00.109Z,22.00
2018-12-27T02:22:03.018Z,20.50
2018-12-27T02:23:06.401Z,18.00
2018-12-27T02:24:14.539Z,20.00
2018-12-27T02:25:17.989Z,20.00
2018-12-27T02:26:22.882Z,21.00
2018-12-27T02:27:27.214Z,19.50
2018-12-27T02:28:30.172Z,18.00
2018-12-27T02:29:33.121Z,23.50
2018-12-27T02:30:36.605Z,21.50
2018-12-27T02:31:39.822Z,23.00
2018-12-27T02:32:42.739Z,28.00
2018-12-27T02:33:45.844Z,24.00
2018-12-27T02:34:48.842Z,26.50
2018-12-27T02:35:52.709Z,24.00
2018-12-27T02:36:55.629Z,22.00
2018-12-27T02:37:58.996Z,19.50
2018-12-27T02:39:04.742Z,22.50
2018-12-27T02:40:07.712Z,20.00
2018-12-27T02:41:10.648Z,25.50
2018-12-27T02:42:14.911Z,25.50
2018-12-27T02:43:17.876Z,24.50
2018-12-27T02:44:21.117Z,26.50
2018-12-27T02:45:25.339Z,27.50
2018-12-27T02:46:28.355Z,25.50
2018-12-27T02:47:31.768Z,22.50
2018-12-27T02:48:37.412Z,18.50
2018-12-27T02:49:40.396Z,21.00
2018-12-27T02:50:48.025Z,23.00
2018-12-27T02:51:51.000Z,17.50
2018-12-27T02:52:53.948Z,19.50
2018-12-27T02:53:56.872Z,18.50
2018-12-27T02:54:59.769Z,20.00
2018-12-27T02:56:02.808Z,21.00
2018-12-27T02:57:06.797Z,22.00
2018-12-27T02:58:09.736Z,17.50
2018-12-27T02:59:12.655Z,17.00
2018-12-27T03:00:15.580Z,19.50
2018-12-27T03:01:18.507Z,22.00
2018-12-27T03:02:21.452Z,21.00
2018-12-27T03:03:24.836Z,20.50
2018-12-27T03:04:27.734Z,17.00
2018-12-27T03:05:30.635Z,23.00
2018-12-27T03:06:34.065Z,20.00
2018-12-27T03:07:37.077Z,22.50
2018-12-27T03:08:40.065Z,19.50
2018-12-27T03:09:43.291Z,20.00
2018-12-27T03:10:46.220Z,22.00
2018-12-27T03:11:49.183Z,19.00
2018-12-27T03:12:54.419Z,20.00
2018-12-27T03:14:16.174Z,18.00
2018-12-27T03:15:24.281Z,17.00
2018-12-27T03:16:27.204Z,20.00
2018-12-27T03:17:30.144Z,24.00
2018-12-27T03:18:33.098Z,19.00
2018-12-27T03:19:36.064Z,21.00
2018-12-27T03:20:42.145Z,18.50
2018-12-27T03:21:45.384Z,18.00
2018-12-27T03:22:48.308Z,18.00
2018-12-27T03:23:51.231Z,22.00
2018-12-27T03:24:56.392Z,22.50
2018-12-27T03:25:59.356Z,20.00
2018-12-27T03:27:02.813Z,21.50
2018-12-27T03:28:06.084Z,19.50
2018-12-27T03:29:09.056Z,20.00
2018-12-27T03:30:12.395Z,20.50
2018-12-27T03:31:15.322Z,19.50
2018-12-27T03:32:18.333Z,19.00
2018-12-27T03:33:21.294Z,18.00
2018-12-27T03:34:24.499Z,18.00
2018-12-27T03:35:30.408Z,18.50
2018-12-27T03:36:33.406Z,18.50
2018-12-27T03:37:36.334Z,16.00
2018-12-27T03:38:39.737Z,15.50
2018-12-27T03:39:42.665Z,17.50
2018-12-27T03:40:46.037Z,24.00
2018-12-27T03:41:49.027Z,21.50
2018-12-27T03:42:52.383Z,18.50
2018-12-27T03:43:55.589Z,19.00
2018-12-27T03:44:58.521Z,17.00
2018-12-27T03:46:01.721Z,18.00
2018-12-27T03:47:04.757Z,15.00
2018-12-27T03:48:08.120Z,18.00
2018-12-27T03:49:11.550Z,17.00
2018-12-27T03:50:14.481Z,18.00
2018-12-27T03:51:17.413Z,16.00
2018-12-27T03:52:20.694Z,15.50
2018-12-27T03:53:23.648Z,17.50
2018-12-27T03:54:26.535Z,17.00
2018-12-27T03:55:29.453Z,17.50
2018-12-27T03:56:32.774Z,16.00
2018-12-27T03:57:35.785Z,17.00
2018-12-27T03:58:40.331Z,15.00
2018-12-27T03:59:45.437Z,15.50
2018-12-27T04:00:48.339Z,14.50
2018-12-27T04:01:51.317Z,19.50
2018-12-27T04:02:54.277Z,14.00
2018-12-27T04:04:01.386Z,16.00
2018-12-27T04:05:02.148Z,16.50
2018-12-27T04:06:05.238Z,16.00
2018-12-27T04:07:08.227Z,15.50
2018-12-27T04:08:11.181Z,19.50
2018-12-27T04:09:14.084Z,18.00
2018-12-27T04:10:17.024Z,20.50
2018-12-27T04:11:20.229Z,18.00
2018-12-27T04:12:23.135Z,21.00
2018-12-27T04:13:26.125Z,21.50
2018-12-27T04:14:29.459Z,18.00
2018-12-27T04:15:32.363Z,16.00
2018-12-27T04:16:38.235Z,16.00
2018-12-27T04:17:43.944Z,22.50
2018-12-27T04:18:47.282Z,16.50
2018-12-27T04:19:50.187Z,20.00
2018-12-27T04:20:53.104Z,13.50
2018-12-27T04:21:56.018Z,16.00
2018-12-27T04:22:59.025Z,18.50
2018-12-27T04:24:05.178Z,17.00
2018-12-27T04:25:10.933Z,22.00
2018-12-27T04:26:13.854Z,24.00
2018-12-27T04:27:16.801Z,25.00
2018-12-27T04:28:19.801Z,22.00
2018-12-27T04:29:22.760Z,22.50
2018-12-27T04:30:28.979Z,21.50
2018-12-27T04:31:31.991Z,23.00
2018-12-27T04:32:35.028Z,19.00
2018-12-27T04:33:38.024Z,21.00
2018-12-27T04:34:40.973Z,21.00
2018-12-27T04:35:43.902Z,24.50
2018-12-27T04:36:47.294Z,25.50
2018-12-27T04:37:50.216Z,31.00
2018-12-27T04:38:53.620Z,27.50
2018-12-27T04:39:56.547Z,32.50
2018-12-27T04:40:59.589Z,27.50
2018-12-27T04:42:02.505Z,27.00
2018-12-27T04:43:05.939Z,31.00
2018-12-27T04:44:08.926Z,30.00
2018-12-27T04:45:11.880Z,29.00
2018-12-27T04:46:15.308Z,28.50
2018-12-27T04:47:18.267Z,28.00
2018-12-27T04:48:21.255Z,24.00
2018-12-27T04:49:24.590Z,22.50
2018-12-27T04:50:27.517Z,27.50
2018-12-27T04:51:30.502Z,25.00
2018-12-27T04:52:33.514Z,27.50
2018-12-27T04:53:36.481Z,30.50
2018-12-27T04:54:39.494Z,24.50
2018-12-27T04:55:42.971Z,28.00
2018-12-27T04:56:45.955Z,27.50
2018-12-27T04:57:48.931Z,23.50
2018-12-27T04:58:51.855Z,22.00
2018-12-27T04:59:55.378Z,21.50
2018-12-27T05:00:58.840Z,22.50
2018-12-27T05:02:02.145Z,23.50
2018-12-27T05:03:05.079Z,19.00
2018-12-27T05:04:08.016Z,16.00
2018-12-27T05:05:10.965Z,16.50
2018-12-27T05:06:13.942Z,22.00
2018-12-27T05:07:16.926Z,22.50
2018-12-27T05:08:20.211Z,27.00
2018-12-27T05:09:23.116Z,21.50
2018-12-27T05:10:26.036Z,27.50
2018-12-27T05:11:29.062Z,22.50
2018-12-27T05:12:32.164Z,25.00
2018-12-27T05:13:43.182Z,28.00
2018-12-27T05:14:46.106Z,24.00
2018-12-27T05:15:49.531Z,20.00
2018-12-27T05:16:52.517Z,18.50
2018-12-27T05:17:55.419Z,16.50
2018-12-27T05:18:58.378Z,21.50
2018-12-27T05:20:02.835Z,15.50
2018-12-27T05:21:05.762Z,14.00
2018-12-27T05:22:08.777Z,17.50
2018-12-27T05:23:14.156Z,14.00
2018-12-27T05:24:17.098Z,16.50
2018-12-27T05:25:20.123Z,15.50
2018-12-27T05:26:23.359Z,15.00
2018-12-27T05:27:26.369Z,16.50
2018-12-27T05:28:29.273Z,16.00
2018-12-27T05:29:32.184Z,14.50
2018-12-27T05:30:35.038Z,16.00
2018-12-27T05:31:38.465Z,16.00
2018-12-27T05:32:43.446Z,11.50
2018-12-27T05:33:46.346Z,12.50
2018-12-27T05:34:49.255Z,16.00
2018-12-27T05:35:52.186Z,13.50
2018-12-27T05:36:55.201Z,14.00
2018-12-27T05:37:58.152Z,14.00
2018-12-27T05:39:01.434Z,14.00
2018-12-27T05:40:04.338Z,14.00
2018-12-27T05:41:07.237Z,14.00
2018-12-27T05:42:10.251Z,10.00
2018-12-27T05:43:13.212Z,16.00
2018-12-27T05:44:16.638Z,12.00
2018-12-27T05:45:20.008Z,16.00
2018-12-27T05:46:22.930Z,14.50
2018-12-27T05:47:25.921Z,14.50
2018-12-27T05:48:28.834Z,14.50
2018-12-27T05:49:31.817Z,12.50
2018-12-27T05:50:35.302Z,14.50
2018-12-27T05:51:41.157Z,17.00
2018-12-27T05:52:44.144Z,13.00
2018-12-27T05:53:47.063Z,18.00
2018-12-27T05:54:49.983Z,14.50
2018-12-27T05:55:52.999Z,12.00
2018-12-27T05:56:55.931Z,14.50
2018-12-27T05:57:59.169Z,13.50
2018-12-27T05:59:02.121Z,12.00
2018-12-27T06:00:05.078Z,10.50
2018-12-27T06:01:08.054Z,13.50
2018-12-27T06:02:19.973Z,10.50
2018-12-27T06:03:22.861Z,13.00
2018-12-27T06:04:25.804Z,10.00
2018-12-27T06:05:28.796Z,10.00
2018-12-27T06:06:31.757Z,11.00
2018-12-27T06:07:35.095Z,11.00
2018-12-27T06:08:38.095Z,10.00
2018-12-27T06:09:41.106Z,12.00
2018-12-27T06:10:46.534Z,10.50
2018-12-27T06:11:49.470Z,11.00
2018-12-27T06:12:52.405Z,10.50
2018-12-27T06:13:55.347Z,13.00
2018-12-27T06:14:58.339Z,12.00
2018-12-27T06:16:01.384Z,9.50
2018-12-27T06:17:04.619Z,11.50
2018-12-27T06:18:07.741Z,12.00
2018-12-27T06:19:10.679Z,10.00
2018-12-27T06:20:13.686Z,12.50
2018-12-27T06:21:16.630Z,12.00
2018-12-27T06:22:19.578Z,12.00
2018-12-27T06:23:23.099Z,9.50
2018-12-27T06:24:26.024Z,8.50
2018-12-27T06:25:30.506Z,11.50
2018-12-27T06:26:33.542Z,11.50
2018-12-27T06:27:36.980Z,11.50
2018-12-27T06:28:39.913Z,11.00
2018-12-27T06:29:44.518Z,9.00
2018-12-27T06:44:03.098Z,15.50
2018-12-27T06:45:06.311Z,13.50
2018-12-27T06:46:09.484Z,11.00
2018-12-27T06:47:12.433Z,10.50
2018-12-27T06:48:15.945Z,9.25
2018-12-27T06:49:19.229Z,10.00
2018-12-27T06:50:22.172Z,9.50
2018-12-27T06:51:25.083Z,12.50
2018-12-27T06:52:28.019Z,16.00
2018-12-27T06:53:31.487Z,14.50
2018-12-27T06:54:35.054Z,17.00
2018-12-27T06:55:38.882Z,18.00
2018-12-27T06:56:41.789Z,14.50
2018-12-27T06:57:44.707Z,10.00
2018-12-27T06:58:48.255Z,11.50
2018-12-27T06:59:51.158Z,8.50
2018-12-27T07:00:54.123Z,10.00
2018-12-27T07:02:02.505Z,8.50
2018-12-27T07:03:05.571Z,12.00
2018-12-27T07:04:08.571Z,10.50
2018-12-27T07:05:11.580Z,12.50
2018-12-27T07:06:14.522Z,10.00
2018-12-27T07:07:17.449Z,12.00
2018-12-27T07:08:20.822Z,12.50
2018-12-27T07:09:24.201Z,11.00
2018-12-27T07:10:27.195Z,10.00
2018-12-27T07:11:30.155Z,7.50
2018-12-27T07:12:33.071Z,7.50
2018-12-27T07:13:35.987Z,10.00
2018-12-27T07:14:39.297Z,9.50
2018-12-27T07:15:42.338Z,8.00
2018-12-27T07:16:45.285Z,10.00
2018-12-27T07:17:48.658Z,8.00
2018-12-27T07:18:51.562Z,6.00
2018-12-27T07:19:55.009Z,8.00
2018-12-27T07:20:58.312Z,6.00
2018-12-27T07:22:01.237Z,9.00
2018-12-27T07:23:04.234Z,8.50
2018-12-27T07:24:07.242Z,8.00
2018-12-27T07:25:10.239Z,7.00
2018-12-27T07:26:13.155Z,8.00
2018-12-27T07:27:16.580Z,8.00
2018-12-27T07:28:20.013Z,8.00
2018-12-27T07:29:24.815Z,10.00
2018-12-27T07:30:30.585Z,7.50
2018-12-27T07:31:34.903Z,10.00
2018-12-27T07:32:37.947Z,9.50
2018-12-27T07:33:41.391Z,8.50
2018-12-27T07:34:44.425Z,10.00
2018-12-27T07:35:47.511Z,11.00
2018-12-27T07:36:50.552Z,10.50
2018-12-27T07:37:53.532Z,10.00
2018-12-27T07:38:58.271Z,12.50
2018-12-27T07:40:01.879Z,10.00
2018-12-27T07:41:05.932Z,12.00
2018-12-27T07:42:10.837Z,12.50
2018-12-27T07:43:13.513Z,11.00
2018-12-27T07:44:16.463Z,8.00
2018-12-27T07:45:19.386Z,9.50
2018-12-27T07:46:23.096Z,9.00
2018-12-27T07:47:26.081Z,7.50
2018-12-27T07:48:29.025Z,10.00
2018-12-27T07:49:31.991Z,10.00
2018-12-27T07:50:34.896Z,8.00
2018-12-27T07:51:37.844Z,11.00
2018-12-27T07:52:42.047Z,6.50
2018-12-27T07:53:44.979Z,8.00
2018-12-27T07:54:48.193Z,12.00
2018-12-27T07:55:53.364Z,10.00
2018-12-27T07:56:56.534Z,10.00
2018-12-27T07:57:59.539Z,14.00
2018-12-27T07:59:02.850Z,12.00
2018-12-27T08:00:05.781Z,11.50
2018-12-27T08:01:09.191Z,15.50
2018-12-27T08:02:14.394Z,12.00
2018-12-27T08:03:17.447Z,12.00
2018-12-27T08:04:20.391Z,12.00
2018-12-27T08:05:23.808Z,12.50
2018-12-27T08:06:26.732Z,10.50
2018-12-27T08:07:29.636Z,12.00
2018-12-27T08:08:32.747Z,12.00
2018-12-27T08:09:35.679Z,10.50
2018-12-27T08:10:38.611Z,11.00
2018-12-27T08:11:43.854Z,11.50
2018-12-27T08:12:47.221Z,10.00
2018-12-27T08:13:50.202Z,13.50
2018-12-27T08:14:55.341Z,14.00
2018-12-27T08:15:58.376Z,14.00
2018-12-27T08:17:04.364Z,12.00
2018-12-27T08:18:07.670Z,12.00
2018-12-27T08:19:11.231Z,11.50
2018-12-27T08:20:16.738Z,11.00
2018-12-27T08:21:20.735Z,11.50
2018-12-27T08:22:23.680Z,11.00
2018-12-27T08:23:26.674Z,10.00
2018-12-27T08:24:31.394Z,12.00
2018-12-27T08:25:38.809Z,10.00
2018-12-27T08:26:41.722Z,10.00
2018-12-27T08:27:44.835Z,9.00
2018-12-27T08:28:50.533Z,9.50
2018-12-27T08:29:53.549Z,8.00
2018-12-27T08:30:56.521Z,10.00
2018-12-27T08:31:59.572Z,11.50
2018-12-27T08:33:04.360Z,9.00
2018-12-27T08:34:07.403Z,10.00
2018-12-27T08:35:11.639Z,11.50
2018-12-27T08:36:15.211Z,10.50
2018-12-27T08:37:18.150Z,12.50
2018-12-27T08:38:21.054Z,13.50
2018-12-27T08:39:23.997Z,15.50
2018-12-27T08:40:27.410Z,20.50
2018-12-27T08:41:30.424Z,23.50
2018-12-27T08:42:33.587Z,25.00
2018-12-27T08:43:36.921Z,22.00
2018-12-27T08:44:39.877Z,19.50
2018-12-27T08:45:42.787Z,23.00
2018-12-27T08:46:45.806Z,22.00
2018-12-27T08:47:49.177Z,24.50
2018-12-27T08:48:52.477Z,24.00
2018-12-27T08:49:55.392Z,24.00
2018-12-27T08:51:01.957Z,22.00
2018-12-27T08:52:05.005Z,21.50
2018-12-27T08:53:08.301Z,21.50
2018-12-27T08:54:11.225Z,23.00
2018-12-27T08:55:14.670Z,24.00
2018-12-27T08:56:19.188Z,23.50
2018-12-27T08:57:22.643Z,21.50
2018-12-27T08:58:25.590Z,27.00
2018-12-27T08:59:28.515Z,22.50
2018-12-27T09:00:31.425Z,24.00
2018-12-27T09:01:34.755Z,21.75
2018-12-27T09:02:37.826Z,25.25
2018-12-27T09:03:40.751Z,21.75
2018-12-27T09:04:44.096Z,21.75
2018-12-27T09:05:47.494Z,22.75
2018-12-27T09:06:50.491Z,20.25
2018-12-27T09:07:53.924Z,21.75
2018-12-27T09:08:56.860Z,23.75
2018-12-27T09:09:59.818Z,23.75
2018-12-27T09:11:03.289Z,26.25
2018-12-27T09:12:06.375Z,24.25
2018-12-27T09:13:09.421Z,26.25
2018-12-27T09:14:12.808Z,23.75
2018-12-27T09:15:15.807Z,25.50
2018-12-27T09:16:19.948Z,24.50
2018-12-27T09:17:23.019Z,23.50
2018-12-27T09:18:26.008Z,23.00
2018-12-27T09:19:28.926Z,27.00
2018-12-27T09:20:32.297Z,22.00
2018-12-27T09:21:36.365Z,22.50
2018-12-27T09:22:39.734Z,21.50
2018-12-27T09:23:42.778Z,15.00
2018-12-27T09:24:48.613Z,11.50
2018-12-27T09:25:52.063Z,12.00
2018-12-27T09:26:55.398Z,9.00
2018-12-27T09:27:59.463Z,9.00
2018-12-27T09:29:02.673Z,10.50
2018-12-27T09:30:07.243Z,10.50
2018-12-27T09:31:11.375Z,8.00
2018-12-27T09:32:15.070Z,10.75
2018-12-27T09:33:18.536Z,8.50
2018-12-27T09:34:21.479Z,10.50
2018-12-27T09:35:26.503Z,8.00
2018-12-27T09:36:31.876Z,10.50
2018-12-27T09:37:35.165Z,11.50
2018-12-27T09:38:38.546Z,7.50
2018-12-27T09:39:42.109Z,11.00
2018-12-27T09:40:46.134Z,9.00
2018-12-27T09:41:49.341Z,11.75
2018-12-27T09:42:52.302Z,11.00
2018-12-27T09:43:55.314Z,13.00
2018-12-27T09:44:59.206Z,9.00
2018-12-27T09:46:02.239Z,9.75
2018-12-27T09:47:05.534Z,11.00
2018-12-27T09:48:09.074Z,11.00
2018-12-27T09:49:12.949Z,10.50
2018-12-27T09:50:15.988Z,10.00
2018-12-27T09:51:21.004Z,11.00
2018-12-27T09:52:23.992Z,7.50
2018-12-27T09:53:27.145Z,11.00
2018-12-27T09:54:30.671Z,9.50
2018-12-27T09:55:37.179Z,11.00
2018-12-27T09:56:40.323Z,9.75
2018-12-27T09:57:43.889Z,8.50
2018-12-27T09:58:46.870Z,10.50
2018-12-27T09:59:50.170Z,7.50
2018-12-27T10:00:53.743Z,9.00
2018-12-27T10:01:57.047Z,7.50
2018-12-27T10:03:00.586Z,8.00
2018-12-27T10:04:03.990Z,7.00
2018-12-27T10:05:17.260Z,6.00
2018-12-27T10:06:11.790Z,5.00
2018-12-27T10:07:15.430Z,6.00
2018-12-27T10:08:19.522Z,7.00
2018-12-27T10:09:22.802Z,7.00
2018-12-27T10:10:26.355Z,9.00
2018-12-27T10:11:29.555Z,9.00
2018-12-27T10:12:32.716Z,8.00
2018-12-27T10:13:36.424Z,9.00
2018-12-27T10:14:42.360Z,9.50
2018-12-27T10:15:53.005Z,8.00
2018-12-27T10:16:57.081Z,6.00
2018-12-27T10:18:00.661Z,7.00
2018-12-27T10:19:03.674Z,8.00
2018-12-27T10:20:07.607Z,7.00
2018-12-27T10:21:10.700Z,8.00
2018-12-27T10:22:14.171Z,7.00
2018-12-27T10:23:21.129Z,7.00
2018-12-27T10:24:24.438Z,5.50
2018-12-27T10:25:31.001Z,9.00
2018-12-27T10:26:36.449Z,9.00
2018-12-27T10:27:39.467Z,8.50
2018-12-27T10:28:44.291Z,8.00
2018-12-27T10:29:51.347Z,10.00
2018-12-27T10:30:59.694Z,8.00
2018-12-27T10:32:01.444Z,10.50
2018-12-27T10:33:07.099Z,9.00
2018-12-27T10:34:12.401Z,7.00
2018-12-27T10:35:22.286Z,9.00
2018-12-27T10:36:33.781Z,9.50
2018-12-27T10:37:37.122Z,10.50
2018-12-27T10:38:42.650Z,11.00
2018-12-27T10:39:49.604Z,10.50
2018-12-27T10:40:54.955Z,11.75
2018-12-27T10:42:05.035Z,8.50
2018-12-27T10:43:08.482Z,10.75
2018-12-27T10:44:14.353Z,9.00
2018-12-27T10:45:17.282Z,10.50
2018-12-27T10:46:21.390Z,10.00
2018-12-27T10:47:24.772Z,14.00
2018-12-27T10:48:28.658Z,13.50
2018-12-27T10:49:32.467Z,17.75
2018-12-27T10:50:40.042Z,14.00
2018-12-27T10:51:41.017Z,14.50
2018-12-27T10:52:54.486Z,15.75
2018-12-27T10:54:02.283Z,14.00
2018-12-27T10:55:05.878Z,15.75
2018-12-27T10:56:18.847Z,16.25
2018-12-27T10:57:22.113Z,15.00
2018-12-27T10:58:28.502Z,16.50
2018-12-27T10:59:32.094Z,18.50
2018-12-27T11:00:35.434Z,20.75
2018-12-27T11:01:39.625Z,18.00
2018-12-27T11:02:42.700Z,22.75
2018-12-27T11:03:47.218Z,19.00
2018-12-27T11:04:53.043Z,19.75
2018-12-27T11:05:56.687Z,22.00
2018-12-27T11:07:03.201Z,21.75
2018-12-27T11:08:06.545Z,21.50
2018-12-27T11:09:09.812Z,20.75
2018-12-27T11:10:13.237Z,21.00
2018-12-27T11:11:16.318Z,19.25
2018-12-27T11:12:20.886Z,21.25
2018-12-27T11:13:24.210Z,21.00
2018-12-27T11:14:27.276Z,20.50
2018-12-27T11:15:30.598Z,19.50
2018-12-27T11:16:40.048Z,18.50
2018-12-27T11:17:43.472Z,19.00
2018-12-27T11:18:49.792Z,19.00
2018-12-27T11:19:52.873Z,21.75
2018-12-27T11:20:56.187Z,19.00
2018-12-27T11:21:59.694Z,19.00
2018-12-27T11:23:05.526Z,17.50
2018-12-27T11:24:10.308Z,21.00
2018-12-27T11:25:15.189Z,20.75
2018-12-27T11:26:18.469Z,19.00
2018-12-27T11:27:21.863Z,20.25
2018-12-27T11:28:25.921Z,20.25
2018-12-27T11:29:29.065Z,18.00
2018-12-27T11:43:01.702Z,18.25
2018-12-27T11:44:04.658Z,19.25
2018-12-27T11:45:08.216Z,18.00
2018-12-27T11:46:11.512Z,20.50
2018-12-27T11:47:14.429Z,19.50
2018-12-27T11:48:18.314Z,20.00
2018-12-27T11:49:21.491Z,19.00
2018-12-27T11:50:26.504Z,22.00
2018-12-27T11:51:36.570Z,17.00
2018-12-27T11:52:40.017Z,18.50
2018-12-27T11:53:46.214Z,19.50
2018-12-27T11:54:52.111Z,19.00
2018-12-27T11:55:55.601Z,17.00
2018-12-27T11:56:59.192Z,18.50
2018-12-27T11:58:02.393Z,19.00
2018-12-27T11:59:08.398Z,19.25
2018-12-27T12:00:11.838Z,17.00
2018-12-27T12:01:16.877Z,17.00
2018-12-27T12:02:19.952Z,19.00
2018-12-27T12:03:23.027Z,17.00
2018-12-27T12:04:26.891Z,20.75
2018-12-27T12:05:29.909Z,16.25
2018-12-27T12:06:33.076Z,18.50
2018-12-27T12:07:36.039Z,20.50
2018-12-27T12:08:39.032Z,20.50
2018-12-27T12:09:44.530Z,19.50
2018-12-27T12:10:47.497Z,20.50
2018-12-27T12:11:50.636Z,21.50
2018-12-27T12:12:55.486Z,16.50
2018-12-27T12:13:58.895Z,17.00
2018-12-27T12:15:02.057Z,29.50
2018-12-27T12:16:05.082Z,35.00
2018-12-27T12:17:10.096Z,25.00
2018-12-27T12:18:13.184Z,19.00
2018-12-27T12:19:28.936Z,18.50
2018-12-27T12:20:31.957Z,16.00
2018-12-27T12:21:34.926Z,15.75
2018-12-27T12:22:38.036Z,15.50
2018-12-27T12:23:41.329Z,18.25
2018-12-27T12:24:50.632Z,20.00
2018-12-27T12:25:55.192Z,19.75
2018-12-27T12:26:58.488Z,18.25
2018-12-27T12:28:04.333Z,20.25
2018-12-27T12:29:07.616Z,18.25
2018-12-27T12:30:10.581Z,20.00
2018-12-27T12:31:15.636Z,22.50
2018-12-27T12:32:18.846Z,24.50
2018-12-27T12:33:22.081Z,24.75
2018-12-27T12:34:25.531Z,23.00
2018-12-27T12:35:29.037Z,23.00
2018-12-27T12:36:33.709Z,20.75
2018-12-27T12:37:38.475Z,24.50
2018-12-27T12:38:41.536Z,20.25
2018-12-27T12:39:45.901Z,21.00
2018-12-27T12:40:50.319Z,19.75
2018-12-27T12:41:53.293Z,22.50
2018-12-27T12:42:59.864Z,23.00
2018-12-27T12:44:03.323Z,27.25
2018-12-27T12:45:06.726Z,28.75
2018-12-27T12:46:13.291Z,21.00
2018-12-27T12:47:16.415Z,19.75
2018-12-27T12:48:19.604Z,23.50
2018-12-27T12:49:23.018Z,23.00
2018-12-27T12:50:27.975Z,20.75
2018-12-27T12:51:31.295Z,21.50
2018-12-27T12:52:34.223Z,21.25
2018-12-27T12:53:37.364Z,20.00
2018-12-27T12:54:40.488Z,19.75
2018-12-27T12:55:43.791Z,20.50
2018-12-27T12:56:48.864Z,21.00
2018-12-27T12:57:52.324Z,19.75
2018-12-27T12:58:55.348Z,21.75
2018-12-27T13:00:01.557Z,18.00
2018-12-27T13:01:05.005Z,21.75
2018-12-27T13:02:10.009Z,27.00
2018-12-27T13:03:15.261Z,21.25
2018-12-27T13:04:18.229Z,23.50
2018-12-27T13:05:22.771Z,25.50
2018-12-27T13:06:25.791Z,22.25
2018-12-27T13:07:28.852Z,24.50
2018-12-27T13:08:32.271Z,22.00
2018-12-27T13:09:36.302Z,21.75
2018-12-27T13:10:39.835Z,21.75
2018-12-27T13:11:43.384Z,21.75
2018-12-27T13:12:46.415Z,20.25
2018-12-27T13:13:49.567Z,20.25
2018-12-27T13:14:52.707Z,20.50
2018-12-27T13:15:56.684Z,18.00
2018-12-27T13:16:59.810Z,20.00
2018-12-27T13:18:03.902Z,21.75
2018-12-27T13:19:07.255Z,26.00
2018-12-27T13:20:11.461Z,22.25
2018-12-27T13:21:14.785Z,22.75
2018-12-27T13:22:18.352Z,22.75
2018-12-27T13:23:24.155Z,21.25
2018-12-27T13:24:27.279Z,23.25
2018-12-27T13:25:30.215Z,22.25
2018-12-27T13:26:35.755Z,22.75
2018-12-27T13:27:38.712Z,24.25
2018-12-27T13:28:42.869Z,23.25
2018-12-27T13:29:49.776Z,22.25
2018-12-27T13:30:53.035Z,25.75
2018-12-27T13:31:59.501Z,28.00
2018-12-27T13:33:02.665Z,24.00
2018-12-27T13:34:06.132Z,22.25
2018-12-27T13:35:14.264Z,23.50
2018-12-27T13:36:17.553Z,23.75
2018-12-27T13:37:20.563Z,23.75
2018-12-27T13:38:27.318Z,23.00
2018-12-27T13:39:30.653Z,22.75
2018-12-27T13:40:34.123Z,22.75
2018-12-27T13:41:37.676Z,24.25
2018-12-27T13:42:47.468Z,21.75
2018-12-27T13:43:51.254Z,32.00
2018-12-27T13:44:54.712Z,26.75
2018-12-27T13:46:04.546Z,25.75
2018-12-27T13:47:08.432Z,32.25
2018-12-27T13:48:12.457Z,26.50
2018-12-27T13:49:18.600Z,26.50
2018-12-27T13:50:21.869Z,35.25
2018-12-27T13:51:26.186Z,37.25
2018-12-27T13:52:29.596Z,37.75
2018-12-27T13:53:35.518Z,28.50
2018-12-27T13:54:56.379Z,27.50
2018-12-27T13:55:48.747Z,26.25
2018-12-27T13:56:51.875Z,23.75
2018-12-27T13:57:55.065Z,23.75
2018-12-27T13:58:58.496Z,20.00
2018-12-27T14:00:02.200Z,24.75
2018-12-27T14:01:05.601Z,20.75
2018-12-27T14:02:09.451Z,25.75
2018-12-27T14:03:12.513Z,20.75
2018-12-27T14:04:17.982Z,20.25
2018-12-27T14:05:21.319Z,20.00
2018-12-27T14:06:32.652Z,24.25
2018-12-27T14:07:31.714Z,19.50
2018-12-27T14:08:34.780Z,21.25
2018-12-27T14:09:38.437Z,20.00